createdAt,value
2022-07-27T00:01:52.501Z,18.50
2022-07-27T00:04:20.073Z,18.50
2022-07-27T00:06:48.953Z,18.40
2022-07-27T00:09:18.398Z,18.40
2022-07-27T00:11:46.715Z,18.40
2022-07-27T00:14:14.220Z,18.40
2022-07-27T00:16:41.735Z,18.40
2022-07-27T00:19:09.531Z,18.40
2022-07-27T00:21:44.811Z,18.40
2022-07-27T00:24:13.918Z,18.40
2022-07-27T00:26:41.352Z,18.30
2022-07-27T00:29:09.261Z,18.30
2022-07-27T00:31:36.852Z,18.40
2022-07-27T00:34:04.215Z,18.40
2022-07-27T00:36:31.389Z,18.40
2022-07-27T00:38:58.573Z,18.40
2022-07-27T00:41:26.188Z,18.50
2022-07-27T00:43:57.624Z,18.40
2022-07-27T00:46:26.581Z,18.30
2022-07-27T00:48:54.636Z,18.30
2022-07-27T00:51:22.840Z,18.40
2022-07-27T00:53:52.691Z,18.40
2022-07-27T00:56:20.317Z,18.30
2022-07-27T00:58:50.304Z,18.40
2022-07-27T01:01:19.169Z,18.40
2022-07-27T01:03:46.742Z,18.40
2022-07-27T01:06:16.576Z,18.40
2022-07-27T01:09:14.825Z,18.40
2022-07-27T01:11:42.297Z,18.40
2022-07-27T01:14:12.216Z,18.40
2022-07-27T01:16:39.881Z,18.40
2022-07-27T01:19:09.949Z,18.40
2022-07-27T01:21:38.355Z,18.40
2022-07-27T01:24:05.942Z,18.30
2022-07-27T01:26:34.850Z,18.30
2022-07-27T01:29:02.020Z,18.20
2022-07-27T01:31:29.751Z,18.20
2022-07-27T01:33:57.427Z,18.20
2022-07-27T01:36:24.755Z,18.20
2022-07-27T01:38:51.912Z,18.30
2022-07-27T01:41:19.105Z,18.20
2022-07-27T01:43:46.464Z,18.20
2022-07-27T01:46:13.772Z,18.10
2022-07-27T01:48:40.985Z,18.10
2022-07-27T01:51:08.329Z,18.10
2022-07-27T01:53:35.442Z,18.00
2022-07-27T01:56:02.695Z,18.00
2022-07-27T01:58:30.007Z,17.90
2022-07-27T02:00:57.163Z,17.80
2022-07-27T02:03:24.370Z,17.90
2022-07-27T02:05:51.523Z,17.90
2022-07-27T02:08:18.861Z,17.90
2022-07-27T02:11:05.965Z,17.80
2022-07-27T02:13:33.224Z,17.80
2022-07-27T02:16:01.112Z,17.70
2022-07-27T02:18:33.086Z,17.70
2022-07-27T02:21:04.794Z,17.70
2022-07-27T02:23:32.202Z,17.70
2022-07-27T02:25:59.420Z,17.60
2022-07-27T02:28:26.793Z,17.70
2022-07-27T02:30:54.342Z,17.70
2022-07-27T02:33:21.613Z,17.80
2022-07-27T02:35:50.184Z,17.80
2022-07-27T02:38:17.357Z,17.80
2022-07-27T02:40:45.032Z,17.80
2022-07-27T02:43:13.299Z,17.90
2022-07-27T02:45:40.577Z,17.90
2022-07-27T02:48:08.437Z,17.90
2022-07-27T02:50:35.841Z,17.90
2022-07-27T02:53:02.991Z,18.00
2022-07-27T02:55:30.510Z,18.00
2022-07-27T02:57:57.696Z,18.10
2022-07-27T03:00:25.083Z,18.00
2022-07-27T03:02:52.242Z,18.10
2022-07-27T03:05:19.542Z,18.10
2022-07-27T03:07:47.479Z,18.10
2022-07-27T03:10:14.982Z,18.00
2022-07-27T03:12:44.479Z,18.10
2022-07-27T03:15:12.036Z,18.10
2022-07-27T03:17:39.548Z,18.00
2022-07-27T03:20:08.081Z,18.00
2022-07-27T03:22:38.326Z,18.00
2022-07-27T03:25:06.604Z,18.00
2022-07-27T03:27:34.398Z,18.10
2022-07-27T03:30:02.508Z,18.10
2022-07-27T03:32:30.737Z,18.10
2022-07-27T03:34:58.365Z,18.10
2022-07-27T03:37:26.166Z,18.10
2022-07-27T03:39:53.550Z,18.10
2022-07-27T03:42:21.451Z,18.20
2022-07-27T03:44:48.980Z,18.20
2022-07-27T03:47:17.451Z,18.20
2022-07-27T03:49:45.235Z,18.20
2022-07-27T03:52:17.718Z,18.20
2022-07-27T03:54:47.362Z,18.20
2022-07-27T03:57:16.012Z,18.20
2022-07-27T03:59:43.824Z,18.20
2022-07-27T04:02:11.841Z,18.20
2022-07-27T04:04:40.612Z,18.20
2022-07-27T04:07:09.187Z,18.30
2022-07-27T04:09:39.526Z,18.30
2022-07-27T04:12:10.147Z,18.40
2022-07-27T04:14:39.782Z,18.40
2022-07-27T04:17:09.777Z,18.40
2022-07-27T04:19:38.829Z,18.50
2022-07-27T04:22:07.243Z,18.60
2022-07-27T04:24:35.112Z,18.60
2022-07-27T04:27:03.221Z,18.70
2022-07-27T04:29:30.817Z,18.70
2022-07-27T04:32:02.242Z,18.70
2022-07-27T04:34:30.424Z,18.80
2022-07-27T04:36:58.581Z,18.80
2022-07-27T04:39:26.859Z,18.90
2022-07-27T04:41:54.735Z,19.00
2022-07-27T04:44:22.424Z,19.00
2022-07-27T04:46:50.659Z,19.10
2022-07-27T04:49:18.515Z,19.00
2022-07-27T04:51:46.243Z,19.10
2022-07-27T04:54:14.478Z,19.20
2022-07-27T04:56:42.748Z,19.20
2022-07-27T04:59:12.350Z,19.20
2022-07-27T05:01:41.082Z,19.20
2022-07-27T05:04:09.185Z,19.20
2022-07-27T05:06:37.269Z,19.30
2022-07-27T05:09:05.616Z,19.30
2022-07-27T05:11:34.575Z,19.40
2022-07-27T05:14:03.514Z,19.40
2022-07-27T05:16:32.360Z,19.50
2022-07-27T05:19:01.087Z,19.50
2022-07-27T05:21:29.894Z,19.60
2022-07-27T05:23:58.136Z,19.60
2022-07-27T05:26:27.122Z,19.80
2022-07-27T05:28:55.716Z,19.90
2022-07-27T05:31:23.911Z,20.00
2022-07-27T05:33:58.218Z,20.10
2022-07-27T05:36:27.621Z,20.30
2022-07-27T05:38:55.994Z,20.50
2022-07-27T05:41:25.701Z,20.70
2022-07-27T05:43:55.807Z,21.00
2022-07-27T05:46:24.884Z,21.10
2022-07-27T05:48:53.692Z,21.40
2022-07-27T05:51:22.082Z,21.50
2022-07-27T05:53:50.002Z,21.70
2022-07-27T05:56:18.007Z,21.70
2022-07-27T05:58:45.703Z,21.70
2022-07-27T06:01:13.758Z,21.60
2022-07-27T06:03:41.699Z,21.60
2022-07-27T06:06:30.177Z,21.50
2022-07-27T06:08:58.341Z,21.50
2022-07-27T06:11:27.251Z,21.50
2022-07-27T06:13:56.472Z,21.40
2022-07-27T06:16:24.491Z,21.40
2022-07-27T06:18:52.601Z,21.40
2022-07-27T06:21:20.494Z,21.40
2022-07-27T06:23:49.001Z,21.70
2022-07-27T06:26:16.791Z,21.90
2022-07-27T06:28:44.807Z,22.10
2022-07-27T06:31:12.817Z,22.20
2022-07-27T06:33:40.418Z,22.40
2022-07-27T06:36:10.142Z,22.50
2022-07-27T06:38:38.374Z,22.70
2022-07-27T06:41:06.504Z,22.90
2022-07-27T06:43:34.780Z,23.00
2022-07-27T06:46:03.941Z,23.30
2022-07-27T06:48:32.074Z,23.50
2022-07-27T06:51:00.352Z,23.60
2022-07-27T06:53:28.975Z,23.80
2022-07-27T06:56:04.749Z,23.80
2022-07-27T06:58:34.091Z,24.00
2022-07-27T07:01:02.975Z,24.10
2022-07-27T07:03:31.228Z,24.30
2022-07-27T07:05:59.521Z,24.60
2022-07-27T07:08:27.700Z,24.80
2022-07-27T07:10:56.136Z,25.00
2022-07-27T07:13:24.354Z,25.30
2022-07-27T07:15:52.370Z,25.80
2022-07-27T07:18:20.615Z,26.50
2022-07-27T07:20:48.848Z,27.40
2022-07-27T07:23:16.304Z,29.40
2022-07-27T07:25:43.497Z,29.70
2022-07-27T07:28:11.424Z,29.90
2022-07-27T07:30:38.831Z,30.20
2022-07-27T07:33:05.976Z,30.10
2022-07-27T07:35:33.103Z,31.00
2022-07-27T07:38:01.083Z,32.30
2022-07-27T07:40:45.416Z,33.80
2022-07-27T07:43:14.889Z,34.90
2022-07-27T07:45:50.798Z,36.40
2022-07-27T07:48:20.184Z,37.00
2022-07-27T07:50:52.103Z,37.30
2022-07-27T07:53:24.825Z,37.10
2022-07-27T07:55:57.185Z,36.70
2022-07-27T07:58:27.559Z,36.00
2022-07-27T08:00:56.822Z,35.50
2022-07-27T08:03:26.296Z,35.30
2022-07-27T08:05:55.305Z,33.90
2022-07-27T08:08:24.877Z,33.10
2022-07-27T08:10:54.178Z,32.60
2022-07-27T08:13:22.798Z,31.80
2022-07-27T08:15:52.611Z,31.20
2022-07-27T08:18:20.656Z,30.60
2022-07-27T08:20:49.050Z,30.40
2022-07-27T08:23:17.342Z,30.30
2022-07-27T08:25:46.463Z,30.10
2022-07-27T08:28:14.817Z,29.40
2022-07-27T08:30:42.993Z,28.90
2022-07-27T08:33:12.440Z,28.50
2022-07-27T08:35:41.255Z,28.00
2022-07-27T08:38:10.036Z,27.90
2022-07-27T08:40:43.486Z,27.70
2022-07-27T08:43:23.821Z,27.90
2022-07-27T08:45:55.979Z,28.00
2022-07-27T08:48:26.053Z,28.50
2022-07-27T08:50:56.665Z,28.90
2022-07-27T08:53:24.109Z,29.10
2022-07-27T08:55:57.536Z,29.30
2022-07-27T08:58:26.286Z,29.60
2022-07-27T09:00:54.632Z,29.70
2022-07-27T09:03:24.597Z,30.00
2022-07-27T09:05:56.472Z,30.10
2022-07-27T09:08:31.131Z,30.30
2022-07-27T09:11:00.616Z,30.60
2022-07-27T09:13:31.617Z,31.00
2022-07-27T09:16:19.032Z,31.30
2022-07-27T09:19:02.339Z,32.20
2022-07-27T09:21:30.506Z,32.30
2022-07-27T09:24:44.366Z,32.00
2022-07-27T09:27:04.300Z,31.80
2022-07-27T09:29:35.519Z,30.80
2022-07-27T09:32:15.398Z,30.40
2022-07-27T09:34:44.061Z,30.00
2022-07-27T09:37:11.268Z,29.80
2022-07-27T09:39:39.351Z,29.70
2022-07-27T09:42:08.295Z,30.00
2022-07-27T09:44:43.688Z,29.90
2022-07-27T09:47:31.469Z,29.70
2022-07-27T09:50:18.351Z,29.80
2022-07-27T09:52:46.132Z,30.30
2022-07-27T09:55:13.227Z,30.70
2022-07-27T09:57:58.882Z,31.10
2022-07-27T10:00:27.425Z,31.20
2022-07-27T10:02:55.582Z,30.50
2022-07-27T10:05:23.406Z,30.50
2022-07-27T10:07:53.314Z,30.50
2022-07-27T10:10:22.411Z,30.80
2022-07-27T10:12:54.523Z,31.10
2022-07-27T10:15:24.015Z,30.50
2022-07-27T10:18:02.126Z,30.60
2022-07-27T10:20:33.418Z,30.40
2022-07-27T10:23:00.509Z,30.60
2022-07-27T10:25:37.518Z,30.50
2022-07-27T10:28:10.357Z,30.70
2022-07-27T10:30:38.364Z,30.20
2022-07-27T10:33:42.106Z,30.10
2022-07-27T10:36:37.797Z,30.50
2022-07-27T10:39:06.523Z,30.30
2022-07-27T10:41:34.757Z,30.50
2022-07-27T10:44:18.955Z,30.50
2022-07-27T10:46:51.520Z,30.20
2022-07-27T10:49:19.826Z,29.80
2022-07-27T10:51:47.315Z,30.00
2022-07-27T10:54:35.286Z,29.90
2022-07-27T10:57:05.187Z,29.90
2022-07-27T11:02:42.816Z,30.10
2022-07-27T11:05:24.880Z,30.00
2022-07-27T11:10:48.862Z,30.00
2022-07-27T11:13:22.482Z,30.20
2022-07-27T11:16:22.970Z,29.90
2022-07-27T11:18:56.247Z,29.90
2022-07-27T11:21:29.454Z,30.30
2022-07-27T11:23:59.689Z,30.50
2022-07-27T11:26:29.280Z,30.40
2022-07-27T11:28:57.057Z,30.60
2022-07-27T11:31:54.780Z,30.80
2022-07-27T11:34:14.292Z,31.10
2022-07-27T11:36:50.077Z,31.30
2022-07-27T11:42:21.861Z,30.80
2022-07-27T11:44:53.107Z,30.50
2022-07-27T11:47:24.496Z,30.30
2022-07-27T11:49:52.414Z,30.30
2022-07-27T11:52:19.751Z,30.20
2022-07-27T11:54:52.557Z,30.30
2022-07-27T11:57:21.032Z,30.40
2022-07-27T11:59:48.685Z,30.50
2022-07-27T12:02:19.853Z,30.50
2022-07-27T12:04:49.582Z,30.50
2022-07-27T12:07:22.129Z,30.60
2022-07-27T12:09:54.505Z,30.40
2022-07-27T12:12:26.030Z,30.40
2022-07-27T12:14:57.402Z,30.60
2022-07-27T12:17:41.470Z,30.60
2022-07-27T12:20:10.505Z,30.20
2022-07-27T12:22:38.485Z,30.10
2022-07-27T12:25:16.414Z,30.30
2022-07-27T12:28:06.053Z,30.40
2022-07-27T12:30:42.241Z,30.60
2022-07-27T12:33:28.535Z,30.80
2022-07-27T12:35:56.570Z,31.00
2022-07-27T12:38:24.058Z,30.80
2022-07-27T12:41:00.544Z,30.60
2022-07-27T12:43:29.327Z,30.60
2022-07-27T12:45:56.586Z,30.50
2022-07-27T12:48:26.567Z,30.50
2022-07-27T12:51:06.022Z,30.70
2022-07-27T12:53:35.390Z,31.00
2022-07-27T12:56:06.484Z,31.20
2022-07-27T12:58:34.005Z,31.10
2022-07-27T13:01:01.175Z,31.00
2022-07-27T13:03:28.375Z,30.80
2022-07-27T13:05:55.575Z,30.80
2022-07-27T13:08:22.853Z,30.60
2022-07-27T13:10:52.547Z,30.60
2022-07-27T13:13:24.705Z,30.50
2022-07-27T13:15:52.380Z,29.90
2022-07-27T13:18:23.469Z,29.80
2022-07-27T13:20:51.680Z,29.70
2022-07-27T13:23:19.460Z,29.70
2022-07-27T13:25:46.677Z,29.70
2022-07-27T13:28:13.735Z,29.60
2022-07-27T13:30:41.013Z,29.70
2022-07-27T13:33:08.840Z,29.70
2022-07-27T13:35:36.196Z,29.50
2022-07-27T13:38:04.435Z,29.40
2022-07-27T13:40:31.476Z,29.20
2022-07-27T13:42:58.746Z,28.90
2022-07-27T13:45:25.871Z,28.80
2022-07-27T13:47:54.625Z,28.80
2022-07-27T13:50:22.314Z,28.70
2022-07-27T13:52:49.693Z,28.70
2022-07-27T13:55:18.350Z,28.70
2022-07-27T13:57:47.158Z,28.70
2022-07-27T14:00:16.118Z,28.70
2022-07-27T14:02:43.500Z,28.60
2022-07-27T14:05:14.192Z,28.50
2022-07-27T14:07:43.357Z,28.40
2022-07-27T14:10:31.392Z,28.10
2022-07-27T14:13:08.095Z,28.10
2022-07-27T14:15:53.056Z,28.10
2022-07-27T14:18:24.214Z,28.00
2022-07-27T14:20:52.974Z,28.00
2022-07-27T14:23:20.532Z,28.20
2022-07-27T14:25:48.121Z,28.30
2022-07-27T14:28:16.277Z,28.40
2022-07-27T14:30:44.089Z,28.40
2022-07-27T14:33:11.325Z,28.60
2022-07-27T14:35:40.864Z,28.50
2022-07-27T14:38:09.715Z,28.40
2022-07-27T14:40:37.963Z,28.30
2022-07-27T14:43:05.761Z,28.20
2022-07-27T14:45:45.062Z,28.30
2022-07-27T14:48:21.442Z,28.30
2022-07-27T14:50:52.495Z,28.30
2022-07-27T14:53:19.564Z,28.40
2022-07-27T14:55:46.736Z,28.30
2022-07-27T14:58:13.854Z,28.30
2022-07-27T15:00:41.133Z,28.20
2022-07-27T15:03:08.352Z,28.20
2022-07-27T15:05:49.430Z,28.20
2022-07-27T15:08:20.139Z,28.10
2022-07-27T15:10:47.889Z,28.20
2022-07-27T15:13:15.553Z,28.20
2022-07-27T15:15:42.857Z,28.40
2022-07-27T15:18:10.298Z,28.40
2022-07-27T15:20:37.301Z,28.40
2022-07-27T15:23:06.711Z,28.50
2022-07-27T15:25:34.469Z,28.50
2022-07-27T15:28:01.541Z,28.40
2022-07-27T15:30:29.402Z,28.40
2022-07-27T15:32:56.613Z,28.40
2022-07-27T15:35:23.740Z,28.30
2022-07-27T15:37:54.731Z,28.10
2022-07-27T15:40:39.269Z,28.00
2022-07-27T15:43:10.701Z,27.90
2022-07-27T15:45:40.617Z,27.80
2022-07-27T15:48:09.753Z,27.70
2022-07-27T15:50:38.620Z,27.70
2022-07-27T15:53:06.350Z,27.70
2022-07-27T15:55:34.470Z,27.60
2022-07-27T15:58:02.336Z,27.60
2022-07-27T16:00:31.439Z,27.60
2022-07-27T16:03:00.394Z,27.60
2022-07-27T16:05:28.257Z,27.50
2022-07-27T16:07:55.511Z,27.50
2022-07-27T16:10:23.126Z,27.40
2022-07-27T16:12:50.241Z,27.40
2022-07-27T16:15:17.714Z,27.30
2022-07-27T16:17:44.852Z,27.20
2022-07-27T16:20:13.475Z,27.10
2022-07-27T16:22:40.553Z,27.10
2022-07-27T16:25:07.691Z,27.00
2022-07-27T16:27:35.445Z,26.90
2022-07-27T16:30:02.515Z,26.90
2022-07-27T16:32:31.474Z,27.00
2022-07-27T16:34:58.537Z,27.00
2022-07-27T16:37:25.687Z,27.10
2022-07-27T16:39:52.805Z,27.20
2022-07-27T16:42:19.974Z,27.20
2022-07-27T16:44:48.268Z,27.30
2022-07-27T16:47:15.355Z,27.30
2022-07-27T16:49:42.630Z,27.10
2022-07-27T16:52:09.927Z,27.10
2022-07-27T16:54:39.677Z,27.00
2022-07-27T16:57:09.277Z,26.80
2022-07-27T16:59:39.229Z,26.70
2022-07-27T17:02:06.451Z,26.60
2022-07-27T17:04:34.681Z,26.50
2022-07-27T17:07:01.819Z,26.40
2022-07-27T17:09:29.289Z,26.30
2022-07-27T17:11:56.628Z,26.10
2022-07-27T17:14:26.088Z,26.00
2022-07-27T17:16:53.441Z,25.90
2022-07-27T17:19:20.771Z,25.80
2022-07-27T17:21:48.174Z,25.70
2022-07-27T17:24:15.349Z,25.50
2022-07-27T17:26:42.561Z,25.40
2022-07-27T17:29:10.090Z,25.40
2022-07-27T17:31:37.606Z,25.40
2022-07-27T17:34:06.560Z,25.30
2022-07-27T17:36:33.683Z,25.20
2022-07-27T17:39:01.723Z,25.20
2022-07-27T17:41:29.250Z,25.10
2022-07-27T17:43:56.770Z,25.00
2022-07-27T17:46:24.859Z,24.80
2022-07-27T17:48:53.166Z,24.80
2022-07-27T17:51:21.056Z,24.60
2022-07-27T17:53:49.497Z,24.50
2022-07-27T17:56:16.646Z,24.40
2022-07-27T17:58:43.940Z,24.40
2022-07-27T18:01:11.341Z,24.20
2022-07-27T18:03:38.501Z,24.10
2022-07-27T18:06:06.887Z,24.10
2022-07-27T18:08:35.092Z,24.00
2022-07-27T18:11:02.554Z,23.90
2022-07-27T18:13:39.593Z,23.80
2022-07-27T18:16:11.768Z,23.70
2022-07-27T18:18:40.446Z,23.60
2022-07-27T18:21:08.891Z,23.40
2022-07-27T18:23:36.122Z,23.30
2022-07-27T18:26:03.899Z,23.20
2022-07-27T18:28:38.773Z,23.20
2022-07-27T18:31:07.810Z,23.20
2022-07-27T18:33:36.349Z,23.00
2022-07-27T18:36:05.472Z,23.00
2022-07-27T18:38:32.836Z,23.00
2022-07-27T18:41:00.125Z,22.90
2022-07-27T18:43:27.501Z,22.90
2022-07-27T18:45:54.721Z,22.80
2022-07-27T18:48:21.744Z,22.80
2022-07-27T18:50:48.904Z,22.70
2022-07-27T18:53:16.126Z,22.70
2022-07-27T18:55:43.625Z,22.70
2022-07-27T18:58:10.781Z,22.60
2022-07-27T19:00:38.504Z,22.50
2022-07-27T19:03:06.108Z,22.40
2022-07-27T19:05:40.598Z,22.40
2022-07-27T19:08:13.446Z,22.30
2022-07-27T19:10:43.438Z,22.30
2022-07-27T19:13:11.671Z,22.20
2022-07-27T19:15:39.844Z,22.20
2022-07-27T19:18:07.662Z,22.20
2022-07-27T19:20:36.670Z,22.10
2022-07-27T19:23:06.497Z,22.10
2022-07-27T19:25:34.182Z,22.10
2022-07-27T19:28:02.719Z,22.10
2022-07-27T19:30:30.028Z,22.00
2022-07-27T19:32:57.262Z,21.90
2022-07-27T19:35:24.359Z,21.90
2022-07-27T19:37:51.654Z,21.90
2022-07-27T19:40:44.220Z,21.90
2022-07-27T19:43:06.169Z,21.80
2022-07-27T19:45:33.678Z,21.70
2022-07-27T19:48:01.723Z,21.70
2022-07-27T19:50:29.150Z,21.70
2022-07-27T19:52:56.131Z,21.70
2022-07-27T19:55:23.275Z,21.60
2022-07-27T19:57:50.513Z,21.60
2022-07-27T20:00:17.799Z,21.60
2022-07-27T20:02:45.269Z,21.60
2022-07-27T20:05:13.408Z,21.50
2022-07-27T20:07:40.460Z,21.50
2022-07-27T20:10:07.965Z,21.40
2022-07-27T20:12:35.043Z,21.40
2022-07-27T20:15:02.327Z,21.30
2022-07-27T20:17:30.724Z,21.30
2022-07-27T20:19:58.316Z,21.20
2022-07-27T20:22:25.349Z,21.20
2022-07-27T20:24:53.131Z,21.20
2022-07-27T20:27:22.201Z,21.10
2022-07-27T20:29:49.313Z,21.00
2022-07-27T20:32:16.403Z,20.90
2022-07-27T20:34:44.486Z,20.90
2022-07-27T20:37:12.988Z,20.80
2022-07-27T20:39:40.330Z,20.70
2022-07-27T20:42:07.503Z,20.60
2022-07-27T20:44:34.597Z,20.50
2022-07-27T20:47:01.706Z,20.50
2022-07-27T20:49:29.312Z,20.40
2022-07-27T20:51:56.514Z,20.30
2022-07-27T20:54:27.308Z,20.20
2022-07-27T20:56:56.907Z,20.20
2022-07-27T20:59:24.606Z,20.00
2022-07-27T21:01:51.873Z,20.00
2022-07-27T21:04:19.275Z,19.90
2022-07-27T21:06:46.604Z,19.90
2022-07-27T21:09:14.575Z,19.80
2022-07-27T21:11:41.901Z,19.80
2022-07-27T21:14:09.703Z,19.90
2022-07-27T21:16:37.644Z,20.00
2022-07-27T21:19:05.193Z,20.00
2022-07-27T21:21:32.763Z,20.10
2022-07-27T21:24:16.978Z,20.10
2022-07-27T21:26:48.530Z,20.20
2022-07-27T21:29:16.223Z,20.20
2022-07-27T21:31:48.329Z,20.20
2022-07-27T21:34:19.193Z,20.20
2022-07-27T21:36:46.954Z,20.20
2022-07-27T21:39:14.402Z,20.20
2022-07-27T21:41:41.892Z,20.20
2022-07-27T21:44:08.994Z,20.10
2022-07-27T21:46:36.524Z,20.10
2022-07-27T21:49:04.276Z,20.00
2022-07-27T21:51:31.449Z,20.00
2022-07-27T21:53:58.564Z,20.00
2022-07-27T21:56:25.667Z,19.90
2022-07-27T21:58:52.761Z,19.90
2022-07-27T22:01:19.960Z,19.90
2022-07-27T22:03:47.561Z,19.80
2022-07-27T22:06:14.728Z,19.80
2022-07-27T22:08:41.949Z,19.80
2022-07-27T22:11:09.664Z,19.80
2022-07-27T22:13:36.768Z,19.80
2022-07-27T22:16:04.386Z,19.80
2022-07-27T22:18:32.005Z,19.80
2022-07-27T22:20:59.178Z,19.90
2022-07-27T22:23:26.477Z,19.90
2022-07-27T22:25:53.530Z,19.90
2022-07-27T22:28:26.183Z,19.80
2022-07-27T22:31:00.173Z,19.80
2022-07-27T22:33:44.209Z,19.70
2022-07-27T22:36:12.706Z,19.70
2022-07-27T22:38:40.380Z,19.60
2022-07-27T22:41:08.129Z,19.50
2022-07-27T22:43:35.314Z,19.50
2022-07-27T22:46:04.698Z,19.40
2022-07-27T22:48:32.099Z,19.40
2022-07-27T22:50:59.384Z,19.30
2022-07-27T22:53:26.568Z,19.20
2022-07-27T22:55:53.873Z,19.20
2022-07-27T22:58:21.800Z,19.10
2022-07-27T23:00:49.186Z,19.10
2022-07-27T23:03:16.625Z,19.00
2022-07-27T23:05:43.784Z,19.00
2022-07-27T23:08:10.857Z,19.00
2022-07-27T23:10:53.342Z,18.90
2022-07-27T23:13:23.089Z,18.90
2022-07-27T23:15:50.628Z,19.00
2022-07-27T23:18:18.102Z,18.90
2022-07-27T23:20:45.473Z,18.90
2022-07-27T23:23:16.235Z,18.80
2022-07-27T23:25:45.798Z,18.80
2022-07-27T23:28:14.471Z,18.70
2022-07-27T23:30:41.742Z,18.70
2022-07-27T23:33:08.930Z,18.60
2022-07-27T23:35:36.122Z,18.60
2022-07-27T23:38:03.166Z,18.50
2022-07-27T23:40:30.452Z,18.50
2022-07-27T23:42:57.680Z,18.40
2022-07-27T23:45:24.711Z,18.30
2022-07-27T23:47:51.926Z,18.40
2022-07-27T23:50:18.973Z,18.30
2022-07-27T23:52:46.402Z,18.20
2022-07-27T23:55:14.070Z,18.20
2022-07-27T23:57:41.241Z,18.10
